createdAt,value
2023-04-07T06:39:02.863Z,12.50
2023-04-07T06:39:14.599Z,17.70
2023-04-07T06:39:24.129Z,15.80
2023-04-07T06:39:34.026Z,14.60
2023-04-07T06:39:44.320Z,15.90
2023-04-07T06:39:54.403Z,15.00
2023-04-07T06:40:04.559Z,14.80
2023-04-07T06:40:14.728Z,11.50
2023-04-07T06:40:24.860Z,11.60
2023-04-07T06:40:34.946Z,11.30
2023-04-07T06:40:44.958Z,8.70
2023-04-07T06:40:55.087Z,9.20
2023-04-07T06:41:05.409Z,9.30
2023-04-07T06:41:16.041Z,9.90
2023-04-07T06:41:25.567Z,9.80
2023-04-07T06:41:35.522Z,10.40
2023-04-07T06:41:45.697Z,10.60
2023-04-07T06:41:55.946Z,11.20
2023-04-07T06:42:06.229Z,11.00
2023-04-07T06:42:16.060Z,10.40
2023-04-07T06:42:26.307Z,10.00
2023-04-07T06:42:36.326Z,11.00
2023-04-07T06:42:46.516Z,12.20
2023-04-07T06:42:56.560Z,11.30
2023-04-07T06:43:06.704Z,12.20
2023-04-07T06:43:16.789Z,12.40
2023-04-07T06:43:26.899Z,12.50
2023-04-07T06:43:37.057Z,11.40
2023-04-07T06:43:47.452Z,9.90
2023-04-07T06:43:57.326Z,9.50
2023-04-07T06:44:09.398Z,8.20
2023-04-07T06:44:17.516Z,7.90
2023-04-07T06:44:27.691Z,8.50
2023-04-07T06:44:37.803Z,8.90
2023-04-07T06:44:47.958Z,9.30
2023-04-07T06:44:58.043Z,10.00
2023-04-07T06:45:08.203Z,10.50
2023-04-07T06:45:18.188Z,11.20
2023-04-07T06:45:28.378Z,10.70
2023-04-07T06:45:38.443Z,10.90
2023-04-07T06:45:48.672Z,11.20
2023-04-07T06:45:58.702Z,12.20
2023-04-07T06:46:08.923Z,12.20
2023-04-07T06:46:18.876Z,11.80
2023-04-07T06:46:29.108Z,12.20
2023-04-07T06:46:39.997Z,12.00
2023-04-07T06:46:49.261Z,11.70
2023-04-07T06:46:59.334Z,10.10
2023-04-07T06:47:09.528Z,10.00
2023-04-07T06:47:19.575Z,9.70
2023-04-07T06:47:29.731Z,8.90
2023-04-07T06:47:49.998Z,13.00
2023-04-07T06:47:59.967Z,19.70
2023-04-07T06:48:10.162Z,19.50
2023-04-07T06:48:20.191Z,20.90
2023-04-07T06:48:30.288Z,21.30
2023-04-07T06:48:40.349Z,19.90
2023-04-07T06:48:50.457Z,16.80
2023-04-07T06:49:00.462Z,10.80
2023-04-07T06:49:10.631Z,11.30
2023-04-07T06:49:20.620Z,10.40
2023-04-07T06:49:31.712Z,10.80
2023-04-07T06:49:41.006Z,11.00
2023-04-07T06:49:51.108Z,11.00
2023-04-07T06:50:01.187Z,12.00
2023-04-07T06:50:12.044Z,11.60
2023-04-07T06:50:21.470Z,11.80
2023-04-07T06:50:41.661Z,12.60
2023-04-07T06:50:51.756Z,12.50
2023-04-07T06:51:01.976Z,12.10
2023-04-07T06:51:12.050Z,13.20
2023-04-07T06:51:22.150Z,12.60
2023-04-07T06:51:32.438Z,12.10
2023-04-07T06:51:42.496Z,12.10
2023-04-07T06:51:52.592Z,12.50
2023-04-07T06:52:02.650Z,11.70
2023-04-07T06:52:12.807Z,10.80
2023-04-07T06:52:22.905Z,11.60
2023-04-07T06:52:33.086Z,12.20
2023-04-07T06:52:43.138Z,13.00
2023-04-07T06:52:53.245Z,12.80
2023-04-07T06:53:03.413Z,12.40
2023-04-07T06:53:13.665Z,13.30
2023-04-07T06:53:23.748Z,12.70
2023-04-07T06:53:33.767Z,11.90
2023-04-07T06:53:43.916Z,10.30
2023-04-07T06:53:54.065Z,10.50
2023-04-07T06:54:04.148Z,10.20
2023-04-07T06:54:14.468Z,10.50
2023-04-07T06:54:24.585Z,10.10
2023-04-07T06:54:34.607Z,10.30
2023-04-07T06:54:44.712Z,10.60
2023-04-07T06:54:54.916Z,10.30
2023-04-07T06:55:04.955Z,9.60
2023-04-07T06:55:15.053Z,8.40
2023-04-07T06:55:25.095Z,8.50
2023-04-07T06:55:35.423Z,10.40
2023-04-07T06:55:45.422Z,10.00
2023-04-07T06:55:55.614Z,10.10
2023-04-07T06:56:05.695Z,10.30
2023-04-07T06:56:16.110Z,12.30
2023-04-07T06:56:26.079Z,12.80
2023-04-07T06:56:36.105Z,10.60
2023-04-07T06:56:46.170Z,10.70
2023-04-07T06:56:56.384Z,11.10
2023-04-07T06:57:06.405Z,11.70
2023-04-07T06:57:16.613Z,9.50
2023-04-07T06:57:26.790Z,9.10
2023-04-07T06:57:36.936Z,9.40
2023-04-07T06:57:46.953Z,9.90
2023-04-07T06:57:57.184Z,9.30
2023-04-07T06:58:07.229Z,8.20
2023-04-07T06:58:17.280Z,9.10
2023-04-07T06:58:29.083Z,9.30
2023-04-07T06:58:37.512Z,9.20
2023-04-07T06:58:47.659Z,9.20
2023-04-07T06:58:57.941Z,9.70
2023-04-07T06:59:07.885Z,9.70
2023-04-07T06:59:18.174Z,9.40
2023-04-07T06:59:29.119Z,9.50
2023-04-07T06:59:38.336Z,9.40
2023-04-07T06:59:48.380Z,9.90
2023-04-07T06:59:58.610Z,9.30
2023-04-07T07:00:08.626Z,10.90
2023-04-07T07:00:18.851Z,11.20
2023-04-07T07:00:39.084Z,9.90
2023-04-07T07:00:49.235Z,10.40
2023-04-07T07:00:59.341Z,10.40
2023-04-07T07:01:09.416Z,9.80
2023-04-07T07:01:19.593Z,9.50
2023-04-07T07:01:29.677Z,10.20
2023-04-07T07:01:39.968Z,10.80
2023-04-07T07:01:50.001Z,9.90
2023-04-07T07:02:00.104Z,9.90
2023-04-07T07:02:10.340Z,10.40
2023-04-07T07:02:20.331Z,10.80
2023-04-07T07:02:30.465Z,9.90
2023-04-07T07:02:40.631Z,9.60
2023-04-07T07:02:50.677Z,9.20
2023-04-07T07:03:00.940Z,10.30
2023-04-07T07:03:10.926Z,10.40
2023-04-07T07:03:21.041Z,9.80
2023-04-07T07:03:31.190Z,10.20
2023-04-07T07:03:41.258Z,10.20
2023-04-07T07:03:51.719Z,10.90
2023-04-07T07:04:01.580Z,10.90
2023-04-07T07:04:11.817Z,10.70
2023-04-07T07:04:21.947Z,11.60
2023-04-07T07:04:31.842Z,11.50
2023-04-07T07:04:42.065Z,11.30
2023-04-07T07:04:52.073Z,12.00
2023-04-07T07:05:02.187Z,10.60
2023-04-07T07:05:12.690Z,10.00
2023-04-07T07:05:22.698Z,9.60
2023-04-07T07:05:34.187Z,10.10
2023-04-07T07:05:43.814Z,10.60
2023-04-07T07:05:53.753Z,9.30
2023-04-07T07:06:04.443Z,9.60
2023-04-07T07:06:13.087Z,11.40
2023-04-07T07:06:23.307Z,11.90
2023-04-07T07:06:43.589Z,10.90
2023-04-07T07:06:53.764Z,10.90
2023-04-07T07:07:03.894Z,11.30
2023-04-07T07:07:14.063Z,9.70
2023-04-07T07:07:24.153Z,9.30
2023-04-07T07:07:34.251Z,10.50
2023-04-07T07:07:44.519Z,11.20
2023-04-07T07:07:54.606Z,11.20
2023-04-07T07:08:04.637Z,10.70
2023-04-07T07:08:14.819Z,11.20
2023-04-07T07:08:25.787Z,11.60
2023-04-07T07:08:35.138Z,11.60
2023-04-07T07:08:45.496Z,10.90
2023-04-07T07:08:55.303Z,12.40
2023-04-07T07:09:05.411Z,13.00
2023-04-07T07:09:15.566Z,12.60
2023-04-07T07:09:25.857Z,11.80
2023-04-07T07:09:36.588Z,14.50
2023-04-07T07:09:45.977Z,14.60
2023-04-07T07:09:56.008Z,13.30
2023-04-07T07:10:06.078Z,12.80
2023-04-07T07:10:16.276Z,13.00
2023-04-07T07:10:27.140Z,12.70
2023-04-07T07:14:40.952Z,10.60
2023-04-07T07:14:52.676Z,9.90
2023-04-07T07:15:02.031Z,10.10
2023-04-07T07:15:12.089Z,10.60
2023-04-07T07:15:22.360Z,11.30
2023-04-07T07:15:32.408Z,12.40
2023-04-07T07:15:42.591Z,12.90
2023-04-07T07:15:52.786Z,16.30
2023-04-07T07:16:02.779Z,17.80
2023-04-07T07:16:12.875Z,17.80
2023-04-07T07:16:23.072Z,17.70
2023-04-07T07:16:33.190Z,17.90
2023-04-07T07:16:43.281Z,17.80
2023-04-07T07:16:53.411Z,16.60
2023-04-07T07:17:03.509Z,14.40
2023-04-07T07:17:13.664Z,13.80
2023-04-07T07:17:23.727Z,13.40
2023-04-07T07:17:33.788Z,12.40
2023-04-07T07:17:44.001Z,11.90
2023-04-07T07:17:54.151Z,10.00
2023-04-07T07:18:04.295Z,10.20
2023-04-07T07:18:14.346Z,10.60
2023-04-07T07:18:24.460Z,12.30
2023-04-07T07:18:34.537Z,13.20
2023-04-07T07:18:44.666Z,14.10
2023-04-07T07:18:54.835Z,14.40
2023-04-07T07:19:04.916Z,14.50
2023-04-07T07:19:14.996Z,13.80
2023-04-07T07:19:25.203Z,12.00
2023-04-07T07:19:35.386Z,11.00
2023-04-07T07:19:45.480Z,9.80
2023-04-07T07:19:55.594Z,10.70
2023-04-07T07:20:05.741Z,11.40
2023-04-07T07:20:15.720Z,11.50
2023-04-07T07:20:25.943Z,12.10
2023-04-07T07:23:21.782Z,12.90
2023-04-07T07:23:32.739Z,13.70
2023-04-07T07:23:43.721Z,12.50
2023-04-07T07:23:52.995Z,12.50
2023-04-07T07:24:03.099Z,10.50
2023-04-07T07:24:13.129Z,10.50
2023-04-07T07:24:23.315Z,10.60
2023-04-07T07:24:33.428Z,9.40
2023-04-07T07:24:53.730Z,10.10
2023-04-07T07:25:03.917Z,10.90
2023-04-07T07:25:14.040Z,10.20
2023-04-07T07:25:24.107Z,11.30
2023-04-07T07:25:34.190Z,11.70
2023-04-07T07:25:44.366Z,12.10
2023-04-07T07:25:54.517Z,13.50
2023-04-07T07:26:04.626Z,13.30
2023-04-07T07:26:14.676Z,13.90
2023-04-07T07:26:24.955Z,14.10
2023-04-07T07:26:34.923Z,14.50
2023-04-07T07:26:45.144Z,14.90
2023-04-07T07:26:55.287Z,13.80
2023-04-07T07:27:05.476Z,15.30
2023-04-07T07:27:15.495Z,14.30
2023-04-07T07:27:25.755Z,13.90
2023-04-07T07:27:35.757Z,13.00
2023-04-07T07:27:45.937Z,12.30
2023-04-07T07:27:56.001Z,11.50
2023-04-07T07:28:06.157Z,9.80
2023-04-07T07:28:16.187Z,10.30
2023-04-07T07:28:26.429Z,10.70
2023-04-07T07:28:36.444Z,10.30
2023-04-07T07:28:46.590Z,10.50
2023-04-07T07:28:56.740Z,10.60
2023-04-07T07:29:06.821Z,10.30
2023-04-07T07:29:16.974Z,11.10
2023-04-07T07:29:27.162Z,12.10
2023-04-07T07:29:37.326Z,12.90
2023-04-07T07:29:47.356Z,13.40
2023-04-07T07:29:57.515Z,13.90
2023-04-07T07:30:07.596Z,15.30
2023-04-07T07:30:17.702Z,14.30
2023-04-07T07:30:27.950Z,14.30
2023-04-07T07:30:38.093Z,14.40
2023-04-07T07:30:48.149Z,17.50
2023-04-07T07:30:58.213Z,18.20
2023-04-07T07:31:08.443Z,17.40
2023-04-07T07:31:18.629Z,18.00
2023-04-07T07:31:28.695Z,17.30
2023-04-07T07:31:38.688Z,15.70
2023-04-07T07:31:48.901Z,13.30
2023-04-07T07:31:58.958Z,11.90
2023-04-07T07:32:09.123Z,14.10
2023-04-07T07:32:19.202Z,14.90
2023-04-07T07:32:29.318Z,13.90
2023-04-07T07:32:39.408Z,13.30
2023-04-07T07:32:49.575Z,12.90
2023-04-07T07:32:59.746Z,13.80
2023-04-07T07:33:09.956Z,10.10
2023-04-07T07:33:19.986Z,9.90
2023-04-07T07:33:30.164Z,11.20
2023-04-07T07:33:40.232Z,12.60
2023-04-07T07:33:50.633Z,12.70
2023-04-07T07:34:00.504Z,11.90
2023-04-07T07:34:10.671Z,11.60
2023-04-07T07:34:20.763Z,13.40
2023-04-07T07:34:30.971Z,11.80
2023-04-07T07:34:40.920Z,13.10
2023-04-07T07:34:51.217Z,13.20
2023-04-07T07:35:01.412Z,12.70
2023-04-07T07:35:11.576Z,14.60
2023-04-07T07:35:21.535Z,15.50
2023-04-07T07:35:31.760Z,15.70
2023-04-07T07:35:41.870Z,14.30
2023-04-07T07:35:52.130Z,14.30
2023-04-07T07:36:02.041Z,14.20
2023-04-07T07:36:12.249Z,11.40
2023-04-07T07:36:22.474Z,9.50
2023-04-07T07:36:33.217Z,10.20
2023-04-07T07:36:42.619Z,9.50
2023-04-07T07:36:52.839Z,9.80
2023-04-07T07:37:02.845Z,10.90
2023-04-07T07:37:13.031Z,10.60
2023-04-07T07:37:23.137Z,11.90
2023-04-07T07:37:33.381Z,11.80
2023-04-07T07:37:43.515Z,12.90
2023-04-07T07:37:53.707Z,12.20
2023-04-07T07:38:03.899Z,11.40
2023-04-07T07:38:13.863Z,12.20
2023-04-07T07:38:23.966Z,11.70
2023-04-07T07:38:35.385Z,12.10
2023-04-07T07:38:44.224Z,10.00
2023-04-07T07:38:54.363Z,9.70
2023-04-07T07:39:04.469Z,9.50
2023-04-07T07:39:14.562Z,8.90
2023-04-07T07:39:24.720Z,8.80
2023-04-07T07:39:34.851Z,8.00
2023-04-07T07:39:44.913Z,8.80
2023-04-07T07:39:54.975Z,9.60
2023-04-07T07:40:05.154Z,9.20
2023-04-07T07:40:15.326Z,8.80
2023-04-07T07:40:25.489Z,8.50
2023-04-07T07:40:35.479Z,8.30
2023-04-07T07:40:45.575Z,8.50
2023-04-07T07:40:55.805Z,8.40
2023-04-07T07:41:05.909Z,9.20
2023-04-07T07:41:15.953Z,10.10
2023-04-07T07:41:26.059Z,10.20
2023-04-07T07:41:36.188Z,9.60
2023-04-07T07:41:46.281Z,8.90
2023-04-07T07:41:56.553Z,8.70
2023-04-07T07:42:06.652Z,8.10
2023-04-07T07:42:17.103Z,7.90
2023-04-07T07:42:26.823Z,8.20
2023-04-07T07:42:37.117Z,8.60
2023-04-07T07:42:47.127Z,8.80
2023-04-07T07:42:57.545Z,9.20
2023-04-07T07:43:07.442Z,9.10
2023-04-07T07:43:17.620Z,9.60
2023-04-07T07:43:27.724Z,9.90
2023-04-07T07:43:37.840Z,10.10
2023-04-07T07:43:48.021Z,10.20
2023-04-07T07:43:58.196Z,10.10
2023-04-07T07:44:08.173Z,10.80
2023-04-07T07:44:18.478Z,9.50
2023-04-07T07:44:29.309Z,9.70
2023-04-07T07:44:38.550Z,10.00
2023-04-07T07:44:48.786Z,10.70
2023-04-07T07:44:59.030Z,10.30
2023-04-07T07:45:09.002Z,10.60
2023-04-07T07:45:19.103Z,10.90
2023-04-07T07:45:31.091Z,10.70
2023-04-07T07:45:39.426Z,11.20
2023-04-07T07:45:49.623Z,11.90
2023-04-07T07:45:59.602Z,13.70
2023-04-07T07:46:10.485Z,13.40
2023-04-07T07:46:19.984Z,13.60
2023-04-07T07:46:40.184Z,12.30
2023-04-07T07:46:51.147Z,11.20
2023-04-07T07:47:00.428Z,10.90
2023-04-07T07:47:10.465Z,12.30
2023-04-07T07:47:20.543Z,12.90
2023-04-07T07:47:30.708Z,16.40
2023-04-07T07:47:40.779Z,17.20
2023-04-07T07:48:01.071Z,15.50
2023-04-07T07:48:11.065Z,15.80
2023-04-07T07:48:21.228Z,14.50
2023-04-07T07:48:31.310Z,10.40
2023-04-07T07:48:41.399Z,9.70
2023-04-07T07:48:51.462Z,10.40
2023-04-07T07:49:01.616Z,10.00
2023-04-07T07:49:11.662Z,8.70
2023-04-07T07:49:21.807Z,10.30
2023-04-07T07:49:31.928Z,11.60
2023-04-07T07:49:42.016Z,11.90
2023-04-07T07:49:52.192Z,11.70
2023-04-07T07:50:02.298Z,11.60
2023-04-07T07:50:12.482Z,11.20
2023-04-07T07:50:22.572Z,9.80
2023-04-07T07:50:32.671Z,9.50
2023-04-07T07:50:42.860Z,9.10
2023-04-07T07:50:52.957Z,8.90
2023-04-07T07:51:03.136Z,8.70
2023-04-07T07:51:13.268Z,9.60
2023-04-07T07:51:23.436Z,9.80
2023-04-07T07:51:34.246Z,10.70
2023-04-07T07:51:43.634Z,11.10
2023-04-07T07:51:53.632Z,11.40
2023-04-07T07:52:03.836Z,12.40
2023-04-07T07:52:13.981Z,14.30
2023-04-07T07:52:24.142Z,13.90
2023-04-07T07:52:44.384Z,13.60
2023-04-07T07:52:54.386Z,13.30
2023-04-07T07:53:04.705Z,12.30
2023-04-07T07:53:14.731Z,10.30
2023-04-07T07:53:24.969Z,9.70
